Time;durP1;ratioP1;P1;durP2;ratioP2;P2;SDS_P1;SDS_P2;PMS_P1;PMS_P2;Temp;Humidity;BMP_temperature;BMP_pressure;BME280_temperature;BME280_humidity;BME280_pressure;Samples;Min_cycle;Max_cycle;Signal;HPM_P1;HPM_P2
2023/11/04 00:00:51;;;;;;;6.93;1.92;;;6.70;99.90;;;;;;4955944;28;20677;-62
2023/11/04 00:03:17;;;;;;;6.25;1.70;;;6.70;99.90;;;;;;4960196;28;20767;-62
2023/11/04 00:05:44;;;;;;;6.57;1.77;;;6.80;99.90;;;;;;4957672;28;20046;-62
2023/11/04 00:08:09;;;;;;;7.18;2.03;;;6.80;99.90;;;;;;4957471;28;20035;-62
2023/11/04 00:10:35;;;;;;;5.07;1.70;;;6.80;99.90;;;;;;4955340;28;20049;-63
2023/11/04 00:13:01;;;;;;;5.68;1.52;;;6.80;99.90;;;;;;4963257;28;20035;-63
2023/11/04 00:15:26;;;;;;;4.10;1.40;;;6.80;99.90;;;;;;4952660;28;20038;-63
2023/11/04 00:17:54;;;;;;;8.40;1.58;;;6.80;99.90;;;;;;4954820;28;20538;-63
2023/11/04 00:20:19;;;;;;;4.03;1.45;;;6.80;99.90;;;;;;4959364;28;20118;-63
2023/11/04 00:22:46;;;;;;;4.25;1.42;;;6.80;99.90;;;;;;4957260;28;20117;-63
2023/11/04 00:25:11;;;;;;;6.75;1.50;;;6.90;99.90;;;;;;4958964;28;20027;-63
2023/11/04 00:27:37;;;;;;;5.72;1.67;;;6.80;99.90;;;;;;4955413;28;20027;-65
2023/11/04 00:30:03;;;;;;;8.27;1.58;;;6.90;99.90;;;;;;4959839;28;20093;-63
2023/11/04 00:32:28;;;;;;;6.47;1.70;;;6.90;99.90;;;;;;4954761;28;20027;-63
2023/11/04 00:34:54;;;;;;;8.43;1.58;;;7.00;99.90;;;;;;4957478;28;20039;-63
2023/11/04 00:37:20;;;;;;;5.45;2.22;;;7.00;99.90;;;;;;4957425;28;20039;-63
2023/11/04 00:39:47;;;;;;;4.95;1.35;;;6.90;99.90;;;;;;4957968;28;20038;-63
2023/11/04 00:42:16;;;;;;;6.47;1.70;;;6.90;99.90;;;;;;4960345;28;20083;-63
2023/11/04 00:44:41;;;;;;;3.63;1.15;;;7.00;99.90;;;;;;4956037;28;20118;-63
2023/11/04 00:47:07;;;;;;;6.43;1.42;;;7.00;99.90;;;;;;4958977;28;20150;-63
2023/11/04 00:49:33;;;;;;;4.40;1.40;;;7.00;99.90;;;;;;4957248;28;20038;-63
2023/11/04 00:51:59;;;;;;;4.95;1.38;;;7.00;99.90;;;;;;4958311;28;20054;-63
2023/11/04 00:54:27;;;;;;;8.25;1.42;;;7.00;99.90;;;;;;4955519;28;20411;-63
2023/11/04 00:56:52;;;;;;;5.13;1.30;;;7.00;99.90;;;;;;4957599;28;20089;-63
2023/11/04 00:59:18;;;;;;;5.75;1.50;;;7.00;99.90;;;;;;4956007;28;20022;-63
2023/11/04 01:01:44;;;;;;;4.13;1.17;;;7.10;99.90;;;;;;4956632;28;20395;-63
2023/11/04 01:04:09;;;;;;;3.33;1.30;;;7.10;99.90;;;;;;4959714;28;20106;-63
2023/11/04 01:06:35;;;;;;;6.82;1.30;;;7.10;99.90;;;;;;4960876;28;20043;-63
2023/11/04 01:09:02;;;;;;;3.05;1.10;;;7.10;99.90;;;;;;4962613;28;20110;-63
2023/11/04 01:11:28;;;;;;;4.53;1.38;;;7.10;99.90;;;;;;4954980;28;20418;-63
2023/11/04 01:13:55;;;;;;;4.85;1.60;;;7.10;99.90;;;;;;4964948;28;20037;-63
2023/11/04 01:16:21;;;;;;;4.00;1.10;;;7.10;99.90;;;;;;4961790;28;20068;-63
2023/11/04 01:18:47;;;;;;;5.03;1.30;;;7.00;99.90;;;;;;4957326;28;20070;-63
2023/11/04 01:21:12;;;;;;;3.10;1.10;;;7.00;99.90;;;;;;4963181;28;20436;-62
2023/11/04 01:23:38;;;;;;;3.65;1.20;;;7.00;99.90;;;;;;4959177;28;20039;-62
2023/11/04 01:26:04;;;;;;;3.22;1.15;;;7.00;99.90;;;;;;4961746;28;20169;-62
2023/11/04 01:28:30;;;;;;;2.63;1.10;;;7.00;99.90;;;;;;4959356;28;20034;-62
2023/11/04 01:30:56;;;;;;;6.45;1.40;;;7.00;99.90;;;;;;4961774;28;20019;-62
2023/11/04 01:33:21;;;;;;;5.35;1.20;;;7.10;99.90;;;;;;4962939;28;20031;-62
2023/11/04 01:35:47;;;;;;;3.55;1.00;;;7.10;99.90;;;;;;4961929;28;20027;-62
2023/11/04 01:38:12;;;;;;;3.13;0.95;;;7.10;99.90;;;;;;4959760;28;20039;-62
2023/11/04 01:40:38;;;;;;;2.78;1.10;;;7.20;99.90;;;;;;4962283;28;20040;-62
2023/11/04 01:43:04;;;;;;;5.18;1.30;;;7.20;99.90;;;;;;4961597;28;20111;-62
2023/11/04 01:45:29;;;;;;;2.70;1.02;;;7.20;99.90;;;;;;4943709;28;20034;-62
2023/11/04 01:47:55;;;;;;;3.63;1.35;;;7.20;99.90;;;;;;4961845;28;20027;-62
2023/11/04 01:50:20;;;;;;;3.25;1.33;;;7.20;99.90;;;;;;4960222;28;20105;-62
2023/11/04 01:52:47;;;;;;;4.72;1.13;;;7.20;99.90;;;;;;4961045;28;20299;-62
2023/11/04 01:55:13;;;;;;;6.85;1.42;;;7.20;99.90;;;;;;4959945;28;20031;-62
2023/11/04 01:57:39;;;;;;;3.88;1.17;;;7.10;99.90;;;;;;4958701;28;20471;-62
2023/11/04 02:00:06;;;;;;;3.90;1.13;;;7.10;99.90;;;;;;4961350;28;20189;-62
2023/11/04 02:02:33;;;;;;;3.75;1.08;;;7.10;99.90;;;;;;4961308;28;20471;-62
2023/11/04 02:05:01;;;;;;;3.28;1.10;;;7.00;99.90;;;;;;4962582;28;20129;-62
2023/11/04 02:07:28;;;;;;;3.25;1.17;;;7.00;99.90;;;;;;4959115;28;20058;-62
2023/11/04 02:09:53;;;;;;;3.25;1.20;;;7.10;99.90;;;;;;4962090;28;20031;-62
2023/11/04 02:12:22;;;;;;;3.47;1.20;;;7.20;99.90;;;;;;4960421;28;20029;-62
2023/11/04 02:14:51;;;;;;;3.25;1.20;;;7.30;99.90;;;;;;4960797;28;20035;-62
2023/11/04 02:17:18;;;;;;;6.75;1.40;;;7.50;99.90;;;;;;4956058;28;20031;-62
2023/11/04 02:19:43;;;;;;;3.97;1.30;;;7.40;99.90;;;;;;4961037;28;20062;-62
2023/11/04 02:22:09;;;;;;;5.00;1.10;;;7.50;99.90;;;;;;4960693;28;20074;-62
2023/11/04 02:24:34;;;;;;;2.00;0.93;;;7.60;99.90;;;;;;4959572;28;20031;-62
2023/11/04 02:27:00;;;;;;;5.18;1.40;;;7.60;99.90;;;;;;4960295;28;20076;-62
2023/11/04 02:29:26;;;;;;;4.90;1.20;;;7.60;99.90;;;;;;4958699;28;20097;-62
2023/11/04 02:31:52;;;;;;;3.50;1.10;;;7.60;99.90;;;;;;4960771;28;20031;-63
2023/11/04 02:34:17;;;;;;;4.65;1.13;;;7.70;99.90;;;;;;4928765;28;20455;-63
2023/11/04 02:36:43;;;;;;;3.55;1.15;;;7.70;99.90;;;;;;4960179;28;20045;-63
2023/11/04 02:39:09;;;;;;;4.25;1.02;;;7.60;99.90;;;;;;4960915;28;20041;-63
2023/11/04 02:41:35;;;;;;;3.33;1.27;;;7.70;99.90;;;;;;4958506;28;20024;-63
2023/11/04 02:44:00;;;;;;;3.50;1.20;;;7.70;99.90;;;;;;4962750;28;20098;-63
2023/11/04 02:46:26;;;;;;;2.33;1.02;;;7.70;99.90;;;;;;4961804;28;20031;-63
2023/11/04 02:48:52;;;;;;;3.33;1.17;;;7.70;99.90;;;;;;4957911;28;20121;-63
2023/11/04 02:51:17;;;;;;;4.32;1.02;;;7.70;99.90;;;;;;4959860;28;20027;-63
2023/11/04 02:53:43;;;;;;;3.78;1.10;;;7.70;99.90;;;;;;4960572;28;20031;-63
2023/11/04 02:56:09;;;;;;;3.03;0.93;;;7.70;99.90;;;;;;4957410;28;20035;-63
2023/11/04 02:58:35;;;;;;;3.97;1.20;;;7.70;99.90;;;;;;4961296;28;20034;-63
2023/11/04 03:01:01;;;;;;;2.08;0.90;;;7.80;99.90;;;;;;4959096;28;20031;-63
2023/11/04 03:03:26;;;;;;;3.05;1.10;;;7.80;99.90;;;;;;4960359;28;20041;-63
2023/11/04 03:05:52;;;;;;;1.85;0.90;;;7.70;99.90;;;;;;4960287;28;20463;-63
2023/11/04 03:08:18;;;;;;;2.53;0.90;;;7.60;99.90;;;;;;4960760;28;20038;-63
2023/11/04 03:10:44;;;;;;;2.63;1.05;;;7.60;99.90;;;;;;4957701;28;20032;-63
2023/11/04 03:13:09;;;;;;;3.33;1.20;;;7.60;99.90;;;;;;4961443;28;20117;-63
2023/11/04 03:15:35;;;;;;;2.80;1.00;;;7.60;99.90;;;;;;4960231;28;20046;-63
2023/11/04 03:18:02;;;;;;;7.22;1.90;;;7.50;99.90;;;;;;4959730;28;20039;-63
2023/11/04 03:20:27;;;;;;;3.03;1.13;;;7.50;99.90;;;;;;4959116;28;20126;-63
2023/11/04 03:22:53;;;;;;;1.83;1.00;;;7.50;99.90;;;;;;4960508;28;20165;-63
2023/11/04 03:25:20;;;;;;;3.20;1.15;;;7.40;99.90;;;;;;4957592;28;20034;-63
2023/11/04 03:27:45;;;;;;;3.85;1.20;;;7.40;99.90;;;;;;4952174;28;20058;-63
2023/11/04 03:30:11;;;;;;;3.83;1.25;;;7.30;99.90;;;;;;4960602;28;20387;-63
2023/11/04 03:32:37;;;;;;;2.20;0.90;;;7.30;99.90;;;;;;4958106;28;20078;-63
2023/11/04 03:35:03;;;;;;;3.83;1.20;;;7.30;99.90;;;;;;4960173;28;20038;-63
2023/11/04 03:37:29;;;;;;;3.55;1.33;;;7.40;99.90;;;;;;4956264;28;20050;-63
2023/11/04 03:39:56;;;;;;;2.20;1.00;;;7.40;99.90;;;;;;4961085;28;20474;-62
2023/11/04 03:42:22;;;;;;;2.63;1.00;;;7.40;99.90;;;;;;4961017;28;20030;-62
2023/11/04 03:44:47;;;;;;;1.45;0.85;;;7.40;99.90;;;;;;4958415;28;20032;-62
2023/11/04 03:47:13;;;;;;;3.85;1.08;;;7.40;99.90;;;;;;4959547;28;20045;-62
2023/11/04 03:49:39;;;;;;;6.35;1.00;;;7.50;99.90;;;;;;4959390;28;20372;-62
2023/11/04 03:52:07;;;;;;;2.90;1.10;;;7.40;99.90;;;;;;4957992;28;20793;-62
2023/11/04 03:54:35;;;;;;;3.13;1.10;;;7.50;99.90;;;;;;4953566;28;20109;-61
2023/11/04 03:57:01;;;;;;;1.75;0.90;;;7.50;99.90;;;;;;4957722;28;20022;-62
2023/11/04 03:59:27;;;;;;;6.25;1.15;;;7.60;99.90;;;;;;4959074;28;20075;-62
2023/11/04 04:01:52;;;;;;;4.97;1.20;;;7.60;99.90;;;;;;4957777;28;20142;-62
2023/11/04 04:04:18;;;;;;;1.98;0.93;;;7.70;99.90;;;;;;4924301;29;20035;-62
2023/11/04 04:06:44;;;;;;;2.75;0.95;;;7.70;99.90;;;;;;4959441;28;20390;-62
2023/11/04 04:09:10;;;;;;;4.85;1.10;;;7.80;99.90;;;;;;4959293;28;20097;-62
2023/11/04 04:11:35;;;;;;;2.67;1.00;;;7.80;99.90;;;;;;4958210;28;20023;-62
2023/11/04 04:14:01;;;;;;;2.15;1.00;;;7.80;99.90;;;;;;4960047;28;20146;-62
2023/11/04 04:16:29;;;;;;;2.33;1.00;;;7.80;99.90;;;;;;4959274;28;20684;-62
2023/11/04 04:18:55;;;;;;;1.70;0.80;;;7.80;99.90;;;;;;4957077;28;20027;-62
2023/11/04 04:21:20;;;;;;;1.83;0.90;;;7.80;99.90;;;;;;4959616;28;20037;-62
2023/11/04 04:23:46;;;;;;;2.25;1.00;;;7.80;99.90;;;;;;4957119;28;20130;-62
2023/11/04 04:26:22;;;;;;;3.25;1.10;;;7.90;99.90;;;;;;4955176;28;20090;-62
2023/11/04 04:28:48;;;;;;;2.33;0.88;;;7.90;99.90;;;;;;4959212;28;20030;-62
2023/11/04 04:31:14;;;;;;;2.63;1.00;;;8.00;99.90;;;;;;4957091;28;20353;-62
2023/11/04 04:33:41;;;;;;;2.42;0.95;;;7.90;99.90;;;;;;4959493;28;20420;-62
2023/11/04 04:36:07;;;;;;;4.28;1.27;;;8.00;99.90;;;;;;4957589;28;20045;-62
2023/11/04 04:38:36;;;;;;;5.00;1.60;;;7.90;99.90;;;;;;4957746;28;20034;-62
2023/11/04 04:41:02;;;;;;;2.72;1.00;;;7.90;99.90;;;;;;4956571;28;20495;-62
2023/11/04 04:43:28;;;;;;;3.38;1.13;;;8.00;99.90;;;;;;4958848;28;20073;-62
2023/11/04 04:45:53;;;;;;;2.78;0.98;;;7.90;99.90;;;;;;4957529;28;20051;-62
2023/11/04 04:48:19;;;;;;;3.10;0.98;;;7.90;99.90;;;;;;4957756;28;20035;-62
2023/11/04 04:50:45;;;;;;;3.55;1.02;;;7.90;99.90;;;;;;4958282;28;20056;-62
2023/11/04 04:53:11;;;;;;;4.15;1.08;;;7.90;99.90;;;;;;4956448;28;20126;-62
2023/11/04 04:55:36;;;;;;;1.75;0.98;;;7.90;99.90;;;;;;4958980;28;20046;-62
2023/11/04 04:58:02;;;;;;;3.40;1.27;;;7.90;99.90;;;;;;4955584;28;20041;-62
2023/11/04 05:00:28;;;;;;;2.95;1.20;;;7.80;99.90;;;;;;4924641;28;20431;-62
2023/11/04 05:02:53;;;;;;;2.80;1.10;;;7.90;99.90;;;;;;4959010;28;20070;-62
2023/11/04 05:05:19;;;;;;;3.63;1.17;;;7.90;99.90;;;;;;4957143;28;20023;-62
2023/11/04 05:07:47;;;;;;;3.38;1.30;;;7.90;99.90;;;;;;4955010;28;20069;-62
2023/11/04 05:10:12;;;;;;;2.50;1.10;;;7.90;99.90;;;;;;4959593;28;20039;-62
2023/11/04 05:12:38;;;;;;;2.55;1.20;;;7.90;99.90;;;;;;4958624;28;20038;-62
2023/11/04 05:15:04;;;;;;;3.13;1.17;;;7.80;99.90;;;;;;4958857;28;20035;-62
2023/11/04 05:17:30;;;;;;;2.70;1.10;;;7.80;99.90;;;;;;4958916;28;20438;-62
2023/11/04 05:19:56;;;;;;;5.25;1.10;;;7.80;99.90;;;;;;4957446;28;20110;-62
2023/11/04 05:22:23;;;;;;;5.13;1.38;;;7.80;99.90;;;;;;4959997;28;20046;-62
2023/11/04 05:24:49;;;;;;;2.63;1.00;;;7.80;99.90;;;;;;4957032;28;20082;-62
2023/11/04 05:27:18;;;;;;;2.38;1.00;;;7.90;99.90;;;;;;4957543;28;20708;-62
2023/11/04 05:29:43;;;;;;;3.83;1.20;;;7.80;99.90;;;;;;4957483;28;20045;-62
2023/11/04 05:32:09;;;;;;;2.90;1.10;;;7.70;99.90;;;;;;4956636;28;20433;-62
2023/11/04 05:34:38;;;;;;;2.65;1.10;;;7.70;99.90;;;;;;4956502;28;20099;-63
2023/11/04 05:37:03;;;;;;;2.55;1.13;;;7.80;99.90;;;;;;4959542;28;20042;-61
2023/11/04 05:39:30;;;;;;;1.58;1.00;;;7.80;99.90;;;;;;4957591;28;20035;-62
2023/11/04 05:41:56;;;;;;;3.22;2.22;;;7.80;99.90;;;;;;4959955;28;20094;-63
2023/11/04 05:44:22;;;;;;;3.15;1.42;;;7.90;99.90;;;;;;4960573;28;20086;-62
2023/11/04 05:46:47;;;;;;;3.05;1.25;;;8.00;99.90;;;;;;4956312;28;20024;-61
2023/11/04 05:49:13;;;;;;;2.90;1.20;;;8.00;99.90;;;;;;4959713;28;20019;-61
2023/11/04 05:51:39;;;;;;;4.57;1.23;;;8.00;99.90;;;;;;4959381;28;20031;-61
2023/11/04 05:54:04;;;;;;;3.67;1.15;;;8.10;99.90;;;;;;4961510;28;20188;-61
2023/11/04 05:56:30;;;;;;;4.80;1.23;;;8.10;99.90;;;;;;4957673;28;20479;-61
2023/11/04 05:58:56;;;;;;;3.28;1.30;;;8.20;99.90;;;;;;4962891;28;20101;-61
2023/11/04 06:01:24;;;;;;;2.80;1.10;;;8.20;99.90;;;;;;4958872;28;20023;-63
2023/11/04 06:03:51;;;;;;;2.92;1.20;;;8.30;99.90;;;;;;4961579;28;20031;-62
2023/11/04 06:06:23;;;;;;;2.97;1.15;;;8.30;99.90;;;;;;4961686;28;20106;-62
2023/11/04 06:08:48;;;;;;;2.83;1.17;;;8.30;99.90;;;;;;4957939;28;20055;-64
2023/11/04 06:11:14;;;;;;;3.53;1.10;;;8.30;99.90;;;;;;4964790;28;20077;-64
2023/11/04 06:13:42;;;;;;;3.15;1.13;;;8.30;99.90;;;;;;4963612;28;20464;-64
2023/11/04 06:16:10;;;;;;;3.08;1.38;;;8.30;99.90;;;;;;4966191;28;20690;-64
2023/11/04 06:18:39;;;;;;;4.07;1.17;;;8.30;99.90;;;;;;4961542;28;20031;-63
2023/11/04 06:21:05;;;;;;;3.30;1.20;;;8.30;99.90;;;;;;4962932;28;20030;-63
2023/11/04 06:23:31;;;;;;;3.47;1.23;;;8.20;99.90;;;;;;4959278;28;20914;-63
2023/11/04 06:25:57;;;;;;;4.43;1.02;;;8.20;99.90;;;;;;4960513;28;20502;-63
2023/11/04 06:28:22;;;;;;;4.22;1.52;;;8.20;99.90;;;;;;4961744;28;20035;-63
2023/11/04 06:30:48;;;;;;;4.45;1.08;;;8.20;99.90;;;;;;4956542;28;20521;-63
2023/11/04 06:33:13;;;;;;;4.93;2.17;;;8.20;99.90;;;;;;4956426;28;20067;-63
2023/11/04 06:35:40;;;;;;;6.18;1.75;;;8.30;99.90;;;;;;4961011;28;20031;-63
2023/11/04 06:38:05;;;;;;;3.13;1.00;;;8.30;99.90;;;;;;4966181;28;20426;-63
2023/11/04 06:40:33;;;;;;;5.07;1.20;;;8.30;99.90;;;;;;4964113;28;20031;-63
2023/11/04 06:43:00;;;;;;;5.57;1.20;;;8.30;99.90;;;;;;4968597;28;20034;-63
2023/11/04 06:45:26;;;;;;;5.13;1.27;;;8.40;99.90;;;;;;4966015;28;20023;-63
2023/11/04 06:47:51;;;;;;;2.75;1.02;;;8.30;99.90;;;;;;4965990;28;20073;-63
2023/11/04 06:50:17;;;;;;;4.65;1.20;;;8.30;99.90;;;;;;4962950;28;20022;-63
2023/11/04 06:52:43;;;;;;;2.63;1.05;;;8.30;99.90;;;;;;4960311;28;20057;-63
2023/11/04 06:55:09;;;;;;;6.70;1.30;;;8.30;99.90;;;;;;4961286;28;20478;-63
2023/11/04 06:57:34;;;;;;;4.05;1.20;;;8.20;99.90;;;;;;4958172;28;20428;-63
2023/11/04 07:00:00;;;;;;;3.25;1.10;;;8.20;99.90;;;;;;4958356;28;20049;-63
2023/11/04 07:02:25;;;;;;;4.53;1.20;;;8.20;99.90;;;;;;4960574;28;20031;-63
2023/11/04 07:04:51;;;;;;;5.22;2.00;;;8.20;99.90;;;;;;4958164;28;20019;-63
2023/11/04 07:07:17;;;;;;;3.65;1.20;;;8.30;99.90;;;;;;4958813;28;20031;-63
2023/11/04 07:09:43;;;;;;;2.67;1.10;;;8.20;99.90;;;;;;4962575;28;20065;-63
2023/11/04 07:12:09;;;;;;;3.38;1.23;;;8.30;99.90;;;;;;4961004;28;20109;-63
2023/11/04 07:14:37;;;;;;;3.83;1.20;;;8.20;99.90;;;;;;4965336;28;20110;-63
2023/11/04 07:17:02;;;;;;;3.53;1.23;;;8.20;99.90;;;;;;4965966;28;20018;-63
2023/11/04 07:19:28;;;;;;;3.65;1.30;;;8.30;99.90;;;;;;4961371;28;20118;-63
2023/11/04 07:21:54;;;;;;;3.28;1.02;;;8.30;99.90;;;;;;4963534;28;20089;-63
2023/11/04 07:24:20;;;;;;;2.88;1.00;;;8.40;99.90;;;;;;4963409;28;20846;-63
2023/11/04 07:26:46;;;;;;;3.33;1.10;;;8.50;99.90;;;;;;4963188;28;20022;-63
2023/11/04 07:29:12;;;;;;;2.67;1.13;;;8.60;99.90;;;;;;4937938;28;20035;-63
2023/11/04 07:31:37;;;;;;;3.50;1.20;;;8.60;99.90;;;;;;4967057;28;20110;-64
2023/11/04 07:34:03;;;;;;;4.55;1.10;;;8.50;99.90;;;;;;4958575;28;20019;-64
2023/11/04 07:36:29;;;;;;;4.15;1.30;;;8.40;99.90;;;;;;4961913;28;20027;-63
2023/11/04 07:38:55;;;;;;;2.38;1.05;;;8.40;99.90;;;;;;4959166;28;20074;-63
2023/11/04 07:41:21;;;;;;;3.88;1.30;;;8.40;99.90;;;;;;4961553;28;20019;-63
2023/11/04 07:43:48;;;;;;;2.65;1.00;;;8.40;99.90;;;;;;4965353;28;20037;-63
2023/11/04 07:46:13;;;;;;;3.15;1.13;;;8.50;99.90;;;;;;4964863;28;20464;-63
2023/11/04 07:48:39;;;;;;;2.67;1.02;;;8.50;99.90;;;;;;4964712;28;20108;-63
2023/11/04 07:51:05;;;;;;;2.42;1.10;;;8.70;99.90;;;;;;4962895;28;20027;-63
2023/11/04 07:53:30;;;;;;;4.53;1.25;;;8.70;99.90;;;;;;4962555;28;20042;-63
2023/11/04 07:55:56;;;;;;;4.20;1.50;;;8.80;99.90;;;;;;4963310;28;20479;-63
2023/11/04 07:58:21;;;;;;;2.72;1.10;;;8.80;99.90;;;;;;4959046;28;20031;-63
2023/11/04 08:00:50;;;;;;;5.30;1.48;;;8.90;99.90;;;;;;4962180;28;20031;-63
2023/11/04 08:03:15;;;;;;;3.47;1.10;;;9.00;99.90;;;;;;4958643;28;20031;-63
2023/11/04 08:05:43;;;;;;;6.65;1.40;;;8.80;99.90;;;;;;4958792;28;20046;-63
2023/11/04 08:08:14;;;;;;;3.72;1.20;;;8.90;99.90;;;;;;4959817;28;20047;-63
2023/11/04 08:10:39;;;;;;;5.35;1.23;;;8.80;99.90;;;;;;4959654;28;20035;-63
2023/11/04 08:13:05;;;;;;;3.03;1.10;;;8.90;99.90;;;;;;4963147;28;20475;-63
2023/11/04 08:15:31;;;;;;;3.90;1.20;;;9.00;99.90;;;;;;4960924;28;20100;-63
2023/11/04 08:17:59;;;;;;;5.20;1.60;;;9.10;99.90;;;;;;4959653;28;20023;-63
2023/11/04 08:20:25;;;;;;;5.35;1.60;;;9.10;99.90;;;;;;4960507;28;20114;-62
2023/11/04 08:22:51;;;;;;;3.08;1.30;;;9.20;99.90;;;;;;4960533;28;20114;-62
2023/11/04 08:25:16;;;;;;;4.68;1.50;;;9.30;99.90;;;;;;4960169;28;20033;-61
2023/11/04 08:27:42;;;;;;;4.28;1.40;;;9.50;99.90;;;;;;4956008;28;20026;-61
2023/11/04 08:30:08;;;;;;;3.28;1.30;;;9.50;99.90;;;;;;4961528;28;20023;-61
2023/11/04 08:32:34;;;;;;;4.45;1.48;;;9.50;99.90;;;;;;4957670;28;20066;-62
2023/11/04 08:35:00;;;;;;;3.70;1.60;;;9.40;99.90;;;;;;4966156;28;20069;-61
2023/11/04 08:37:27;;;;;;;5.45;1.73;;;9.40;99.90;;;;;;4959795;28;20035;-61
2023/11/04 08:39:55;;;;;;;3.58;1.40;;;9.40;99.90;;;;;;4963594;28;20379;-61
2023/11/04 08:42:22;;;;;;;4.65;1.67;;;9.50;99.90;;;;;;4963797;28;20074;-61
2023/11/04 08:44:50;;;;;;;4.68;1.60;;;9.60;99.90;;;;;;4954087;28;20122;-61
2023/11/04 08:47:18;;;;;;;4.55;1.63;;;9.60;99.90;;;;;;4962951;28;20046;-61
2023/11/04 08:49:44;;;;;;;4.25;1.50;;;9.60;99.90;;;;;;4958211;28;20042;-61
2023/11/04 08:52:09;;;;;;;5.43;1.70;;;9.60;99.90;;;;;;4959341;28;20026;-59
2023/11/04 08:54:35;;;;;;;5.40;1.52;;;9.60;99.90;;;;;;4959273;28;20123;-61
2023/11/04 08:57:01;;;;;;;4.93;2.00;;;9.60;99.90;;;;;;4964524;28;20034;-61
2023/11/04 08:59:26;;;;;;;5.32;2.00;;;9.60;99.90;;;;;;4966274;28;20023;-61
2023/11/04 09:01:52;;;;;;;5.78;1.60;;;9.60;99.90;;;;;;4955227;28;20475;-61
2023/11/04 09:04:17;;;;;;;3.17;1.40;;;9.60;99.90;;;;;;4963622;28;20058;-61
2023/11/04 09:06:43;;;;;;;5.72;1.70;;;9.50;99.90;;;;;;4958785;28;20032;-61
2023/11/04 09:09:09;;;;;;;3.85;1.48;;;9.50;99.90;;;;;;4964837;28;20158;-61
2023/11/04 09:11:39;;;;;;;4.75;1.60;;;9.60;99.90;;;;;;4959740;28;20063;-61
2023/11/04 09:14:04;;;;;;;7.90;1.70;;;9.60;99.90;;;;;;4957111;28;20051;-61
2023/11/04 09:16:33;;;;;;;3.80;1.50;;;9.60;99.90;;;;;;4962449;28;20089;-61
2023/11/04 09:19:00;;;;;;;4.95;1.73;;;9.60;99.90;;;;;;4962312;28;20033;-61
2023/11/04 09:21:26;;;;;;;4.80;1.60;;;9.70;99.90;;;;;;4959359;28;20110;-61
2023/11/04 09:23:52;;;;;;;4.28;1.58;;;9.80;99.90;;;;;;4963674;28;20066;-61
2023/11/04 09:26:18;;;;;;;3.97;1.60;;;10.00;99.90;;;;;;4965201;28;20051;-60
2023/11/04 09:28:49;;;;;;;3.88;1.50;;;10.10;99.90;;;;;;4962286;28;20035;-62
2023/11/04 09:31:15;;;;;;;4.75;1.70;;;10.20;99.90;;;;;;4964621;28;20023;-63
2023/11/04 09:33:40;;;;;;;3.40;1.35;;;10.30;99.90;;;;;;4957396;28;20222;-63
2023/11/04 09:36:07;;;;;;;4.35;1.70;;;10.40;99.90;;;;;;4962719;28;20031;-63
2023/11/04 09:38:33;;;;;;;3.70;1.60;;;10.40;99.90;;;;;;4959550;28;20036;-63
2023/11/04 09:40:59;;;;;;;4.75;1.60;;;10.50;99.90;;;;;;4963405;28;20066;-63
2023/11/04 09:43:25;;;;;;;3.25;1.27;;;10.60;99.90;;;;;;4965940;28;20031;-63
2023/11/04 09:45:51;;;;;;;6.60;1.48;;;10.70;99.90;;;;;;4952322;28;20086;-63
2023/11/04 09:48:17;;;;;;;2.47;1.10;;;10.70;99.90;;;;;;4960913;28;20106;-63
2023/11/04 09:50:43;;;;;;;4.18;1.40;;;10.80;99.90;;;;;;4964468;28;20455;-63
2023/11/04 09:53:29;;;;;;;2.63;1.30;;;10.80;99.90;;;;;;4955952;28;20089;-63
2023/11/04 09:55:55;;;;;;;4.43;1.40;;;10.90;99.90;;;;;;4956226;28;20063;-62
2023/11/04 09:58:21;;;;;;;3.72;1.30;;;11.00;99.90;;;;;;4952339;28;20066;-62
2023/11/04 10:00:46;;;;;;;6.10;1.30;;;10.90;99.90;;;;;;4964904;28;20031;-62
2023/11/04 10:03:13;;;;;;;3.08;1.30;;;10.90;99.90;;;;;;4962415;28;20122;-62
2023/11/04 10:05:38;;;;;;;3.28;1.33;;;10.90;99.90;;;;;;4960791;28;20031;-63
2023/11/04 10:08:04;;;;;;;3.58;1.30;;;11.00;99.90;;;;;;4960684;28;20051;-63
2023/11/04 10:10:30;;;;;;;5.80;1.40;;;10.90;99.90;;;;;;4961943;28;20058;-63
2023/11/04 10:12:59;;;;;;;3.60;1.20;;;10.90;99.90;;;;;;4964996;28;20031;-63
2023/11/04 10:15:25;;;;;;;4.72;1.50;;;10.90;99.90;;;;;;4962457;28;20102;-63
2023/11/04 10:17:51;;;;;;;3.45;1.30;;;10.90;99.90;;;;;;4962487;28;20114;-63
2023/11/04 10:20:17;;;;;;;4.43;1.30;;;10.80;99.90;;;;;;4960305;28;20054;-63
2023/11/04 10:22:43;;;;;;;2.78;1.30;;;11.20;99.90;;;;;;4964266;28;20058;-63
2023/11/04 10:25:09;;;;;;;3.25;1.40;;;11.70;99.90;;;;;;4963149;28;20509;-64
2023/11/04 10:27:35;;;;;;;3.70;1.30;;;12.10;99.90;;;;;;4963507;28;20098;-63
2023/11/04 10:30:02;;;;;;;4.93;1.42;;;12.30;99.60;;;;;;4962441;28;20034;-63
2023/11/04 10:32:34;;;;;;;5.82;1.30;;;12.10;99.90;;;;;;4957210;28;20141;-63
2023/11/04 10:35:10;;;;;;;4.43;1.40;;;12.20;99.90;;;;;;4958483;28;20129;-63
2023/11/04 10:37:37;;;;;;;4.57;1.38;;;12.30;99.50;;;;;;4959532;28;20035;-63
2023/11/04 10:40:07;;;;;;;5.25;1.15;;;12.10;99.90;;;;;;4960653;28;20434;-63
2023/11/04 10:42:40;;;;;;;2.75;1.17;;;12.00;99.60;;;;;;4968856;28;20023;-64
2023/11/04 10:45:16;;;;;;;5.32;1.60;;;12.10;99.90;;;;;;4950194;28;20027;-64
2023/11/04 10:48:01;;;;;;;5.00;1.50;;;12.30;99.60;;;;;;4972467;28;20037;-64
2023/11/04 10:50:33;;;;;;;2.75;1.05;;;12.10;99.90;;;;;;4963123;28;20018;-64
2023/11/04 10:53:19;;;;;;;4.15;1.35;;;12.10;99.90;;;;;;4957104;28;20027;-64
2023/11/04 10:56:18;;;;;;;4.78;1.50;;;11.90;99.90;;;;;;4954490;28;20039;-64
2023/11/04 10:59:01;;;;;;;3.97;1.40;;;12.00;99.90;;;;;;4959299;28;20134;-63
2023/11/04 11:01:28;;;;;;;3.17;1.02;;;11.90;99.90;;;;;;4967843;28;20042;-63
2023/11/04 11:03:55;;;;;;;3.38;1.27;;;11.80;99.90;;;;;;4963657;28;20483;-63
2023/11/04 11:06:21;;;;;;;5.10;1.58;;;11.60;99.90;;;;;;4965103;28;20105;-63
2023/11/04 11:08:48;;;;;;;3.55;1.27;;;11.60;99.90;;;;;;4967450;28;20070;-63
2023/11/04 11:11:55;;;;;;;4.47;1.38;;;11.50;99.90;;;;;;4968200;28;20563;-64
2023/11/04 11:14:21;;;;;;;4.28;1.23;;;11.40;99.90;;;;;;4957698;28;20026;-64
2023/11/04 11:17:01;;;;;;;3.00;1.10;;;11.40;99.90;;;;;;4958668;28;20034;-64
2023/11/04 11:19:27;;;;;;;4.47;1.35;;;11.30;99.90;;;;;;4960298;28;20023;-64
2023/11/04 11:21:53;;;;;;;5.90;1.60;;;11.30;99.90;;;;;;4959102;28;20090;-63
2023/11/04 11:24:20;;;;;;;5.00;1.40;;;11.30;99.90;;;;;;4957979;28;20122;-64
2023/11/04 11:26:57;;;;;;;3.58;1.10;;;11.30;99.90;;;;;;4941697;28;20032;-64
2023/11/04 11:29:26;;;;;;;4.47;1.20;;;11.30;99.90;;;;;;4961154;28;20034;-64
2023/11/04 11:32:08;;;;;;;4.70;1.35;;;11.30;99.90;;;;;;4966341;28;20035;-64
2023/11/04 11:34:34;;;;;;;5.03;1.35;;;11.20;99.90;;;;;;4962822;28;20022;-64
2023/11/04 11:37:00;;;;;;;4.43;1.38;;;11.20;99.90;;;;;;4965022;28;20023;-64
2023/11/04 11:39:28;;;;;;;5.65;1.27;;;11.20;99.90;;;;;;4961570;28;20057;-64
2023/11/04 11:41:56;;;;;;;3.05;1.17;;;11.20;99.90;;;;;;4963691;28;20398;-64
2023/11/04 11:44:22;;;;;;;3.90;1.30;;;11.10;99.90;;;;;;4931387;28;20038;-64
2023/11/04 11:46:47;;;;;;;3.80;1.48;;;11.00;99.90;;;;;;4958619;28;20031;-63
2023/11/04 11:49:13;;;;;;;4.03;1.13;;;11.00;99.90;;;;;;4965121;28;20027;-63
2023/11/04 11:51:38;;;;;;;4.18;1.48;;;11.00;99.90;;;;;;4962164;28;20042;-62
2023/11/04 11:54:04;;;;;;;5.65;1.52;;;10.90;99.90;;;;;;4961835;28;20027;-62
2023/11/04 11:56:31;;;;;;;5.72;1.30;;;10.90;99.90;;;;;;4959105;28;20019;-62
2023/11/04 11:59:03;;;;;;;5.28;1.35;;;10.90;99.90;;;;;;4962874;28;20031;-62
2023/11/04 12:01:31;;;;;;;3.83;1.30;;;10.80;99.90;;;;;;4958673;28;20577;-62
2023/11/04 12:03:59;;;;;;;5.45;1.30;;;10.70;99.90;;;;;;4962229;28;20042;-62
2023/11/04 12:06:27;;;;;;;5.20;1.50;;;10.70;99.90;;;;;;4961400;28;20024;-62
2023/11/04 12:08:55;;;;;;;5.13;1.50;;;10.70;99.90;;;;;;4911002;29;20396;-62
2023/11/04 12:11:22;;;;;;;4.95;1.40;;;10.70;99.90;;;;;;4939129;29;20134;-62
2023/11/04 12:13:49;;;;;;;3.08;1.17;;;10.60;99.90;;;;;;4937711;29;20553;-63
2023/11/04 12:16:15;;;;;;;4.68;1.35;;;10.60;99.90;;;;;;4938613;29;20032;-63
2023/11/04 12:18:40;;;;;;;8.02;1.48;;;10.50;99.90;;;;;;4937348;29;20095;-63
2023/11/04 12:21:10;;;;;;;3.60;1.27;;;10.50;99.90;;;;;;4942174;28;20085;-63
2023/11/04 12:23:39;;;;;;;4.40;1.20;;;10.50;99.90;;;;;;4937854;29;20031;-63
2023/11/04 12:26:05;;;;;;;3.47;1.27;;;10.40;99.90;;;;;;4936767;29;20015;-63
2023/11/04 12:28:38;;;;;;;3.05;1.20;;;10.50;99.90;;;;;;4941525;29;20030;-63
2023/11/04 12:31:04;;;;;;;3.05;1.13;;;10.50;99.90;;;;;;4941069;29;20023;-63
2023/11/04 12:33:31;;;;;;;3.85;1.30;;;10.70;99.90;;;;;;4939600;29;20022;-63
2023/11/04 12:36:13;;;;;;;2.55;1.08;;;10.70;99.90;;;;;;4938592;29;20138;-63
2023/11/04 12:38:42;;;;;;;3.70;1.30;;;10.80;99.90;;;;;;4938962;29;20039;-62
2023/11/04 12:41:09;;;;;;;3.67;1.40;;;10.80;99.90;;;;;;4939706;29;20115;-62
2023/11/04 12:43:36;;;;;;;4.95;1.50;;;10.70;99.90;;;;;;4938285;29;20027;-63
2023/11/04 12:46:03;;;;;;;5.97;1.50;;;10.70;99.90;;;;;;4941622;28;20027;-62
2023/11/04 12:48:28;;;;;;;4.32;1.27;;;10.80;99.90;;;;;;4936789;29;20023;-62
2023/11/04 12:50:56;;;;;;;3.47;1.17;;;10.70;99.90;;;;;;4926190;29;20511;-62
2023/11/04 12:53:22;;;;;;;4.38;1.20;;;10.60;99.90;;;;;;4936558;29;20062;-63